Time;durP1;ratioP1;P1;durP2;ratioP2;P2;SDS_P1;SDS_P2;PMS_P1;PMS_P2;Temp;Humidity;BMP_temperature;BMP_pressure;BME280_temperature;BME280_humidity;BME280_pressure;Samples;Min_cycle;Max_cycle;Signal;HPM_P1;HPM_P2
2021/06/20 00:01:56;;;;;;;17.25;12.18;;;24.50;99.90;;;;;;5097502;28;20159;-66
2021/06/20 00:04:25;;;;;;;24.27;13.57;;;24.40;99.90;;;;;;5097051;28;20494;-66
2021/06/20 00:06:52;;;;;;;21.55;12.60;;;24.40;99.90;;;;;;5099751;28;20117;-66
2021/06/20 00:09:20;;;;;;;16.05;12.15;;;24.30;99.90;;;;;;5099660;28;20422;-66
2021/06/20 00:11:50;;;;;;;21.90;12.80;;;24.30;99.90;;;;;;5097093;28;20104;-66
2021/06/20 00:14:18;;;;;;;17.23;12.25;;;24.10;99.90;;;;;;5097410;28;20453;-66
2021/06/20 00:16:46;;;;;;;19.58;12.75;;;24.10;99.90;;;;;;5097592;28;20039;-66
2021/06/20 00:19:13;;;;;;;17.90;12.05;;;24.10;99.90;;;;;;5096182;28;20047;-66
2021/06/20 00:21:41;;;;;;;18.30;12.35;;;24.10;99.90;;;;;;5097042;28;20097;-66
2021/06/20 00:24:09;;;;;;;18.42;11.85;;;24.00;99.90;;;;;;5097366;28;20048;-66
2021/06/20 00:26:37;;;;;;;20.95;11.85;;;23.90;99.90;;;;;;5096354;28;20047;-66
2021/06/20 00:29:04;;;;;;;18.05;11.77;;;24.00;99.90;;;;;;5097315;28;20071;-66
2021/06/20 00:31:32;;;;;;;19.42;11.98;;;24.00;99.90;;;;;;5096875;28;20043;-66
2021/06/20 00:33:59;;;;;;;20.40;11.77;;;24.00;99.90;;;;;;5097777;28;20097;-66
2021/06/20 00:36:26;;;;;;;21.65;11.52;;;24.00;99.90;;;;;;5097299;28;20051;-66
2021/06/20 00:38:54;;;;;;;19.25;11.57;;;24.00;99.90;;;;;;5097217;28;20048;-66
2021/06/20 00:41:21;;;;;;;18.23;12.35;;;24.00;99.90;;;;;;5097117;28;20048;-66
2021/06/20 00:43:48;;;;;;;16.88;10.80;;;24.00;99.90;;;;;;5097555;28;20491;-66
2021/06/20 00:46:15;;;;;;;17.02;11.02;;;24.00;99.90;;;;;;5097933;28;20607;-66
2021/06/20 00:48:42;;;;;;;17.33;11.45;;;24.10;99.90;;;;;;5098066;28;20083;-66
2021/06/20 00:51:09;;;;;;;17.38;11.18;;;24.20;99.90;;;;;;5096905;28;20746;-66
2021/06/20 00:53:37;;;;;;;18.52;10.82;;;24.10;99.90;;;;;;5098220;28;20043;-66
2021/06/20 00:56:06;;;;;;;19.45;11.32;;;24.10;99.90;;;;;;5097203;28;20510;-66
2021/06/20 00:58:33;;;;;;;15.73;11.63;;;24.10;99.90;;;;;;5097250;28;20108;-66
2021/06/20 01:01:00;;;;;;;21.27;12.32;;;24.10;99.90;;;;;;5096701;28;20449;-66
2021/06/20 01:03:27;;;;;;;18.48;11.52;;;24.20;99.90;;;;;;5097831;28;20047;-66
2021/06/20 01:05:53;;;;;;;16.30;11.20;;;24.20;99.90;;;;;;5096291;28;20134;-66
2021/06/20 01:08:20;;;;;;;16.88;11.40;;;24.10;99.90;;;;;;5096874;28;20079;-66
2021/06/20 01:10:48;;;;;;;16.20;10.43;;;24.10;99.90;;;;;;5096293;28;20838;-66
2021/06/20 01:13:18;;;;;;;16.23;10.52;;;24.10;99.90;;;;;;5096497;28;20079;-66
2021/06/20 01:15:47;;;;;;;20.23;10.35;;;24.00;99.90;;;;;;5097112;28;20047;-66
2021/06/20 01:18:14;;;;;;;17.10;11.18;;;23.90;99.90;;;;;;5096177;28;20089;-66
2021/06/20 01:20:41;;;;;;;14.43;10.82;;;23.90;99.90;;;;;;5096574;28;20051;-66
2021/06/20 01:23:10;;;;;;;17.13;11.75;;;24.00;99.90;;;;;;5096218;28;20104;-66
2021/06/20 01:25:40;;;;;;;25.33;13.90;;;23.90;99.90;;;;;;5097136;28;20052;-66
2021/06/20 01:28:09;;;;;;;20.00;13.23;;;24.00;99.90;;;;;;5096396;28;20040;-66
2021/06/20 01:30:38;;;;;;;21.90;14.38;;;24.00;99.90;;;;;;5098795;28;20055;-66
2021/06/20 01:33:07;;;;;;;22.40;13.52;;;23.90;99.90;;;;;;5100880;28;20047;-66
2021/06/20 01:35:34;;;;;;;24.25;14.45;;;23.90;99.90;;;;;;5100724;27;20107;-66
2021/06/20 01:38:03;;;;;;;23.55;15.07;;;23.90;99.90;;;;;;5100256;28;20043;-66
2021/06/20 01:40:32;;;;;;;22.38;14.40;;;23.70;99.90;;;;;;5099917;27;20094;-66
2021/06/20 01:42:59;;;;;;;21.20;14.57;;;23.80;99.90;;;;;;5099894;28;20083;-66
2021/06/20 01:45:28;;;;;;;25.85;15.00;;;23.80;99.90;;;;;;5100136;27;20056;-67
2021/06/20 01:47:57;;;;;;;21.27;14.55;;;23.80;99.90;;;;;;5100538;27;20109;-66
2021/06/20 01:50:24;;;;;;;22.27;15.82;;;23.90;99.90;;;;;;5099783;27;20140;-66
2021/06/20 01:53:00;;;;;;;20.58;14.88;;;23.60;99.90;;;;;;5100350;27;20461;-66
2021/06/20 01:55:27;;;;;;;24.77;16.17;;;23.60;99.90;;;;;;5099527;28;20575;-66
2021/06/20 01:57:56;;;;;;;20.90;15.02;;;23.70;99.90;;;;;;5100784;27;20397;-66
2021/06/20 02:00:23;;;;;;;22.77;15.00;;;23.60;99.90;;;;;;5099248;28;20515;-66
2021/06/20 02:02:50;;;;;;;22.90;15.82;;;23.60;99.90;;;;;;5100100;28;20047;-66
2021/06/20 02:05:17;;;;;;;23.10;16.20;;;23.50;99.90;;;;;;5099773;28;20055;-66
2021/06/20 02:07:43;;;;;;;18.95;13.50;;;23.50;99.90;;;;;;5099624;28;20079;-66
2021/06/20 02:10:13;;;;;;;23.80;15.85;;;23.60;99.90;;;;;;5100068;27;20096;-66
2021/06/20 02:12:40;;;;;;;25.15;16.63;;;23.60;99.90;;;;;;5099758;27;20105;-66
2021/06/20 02:15:11;;;;;;;25.20;14.85;;;23.60;99.90;;;;;;5099861;28;20079;-66
2021/06/20 02:17:39;;;;;;;22.02;14.43;;;23.50;99.90;;;;;;5100173;27;20102;-66
2021/06/20 02:20:09;;;;;;;21.73;15.27;;;23.40;99.90;;;;;;5098790;27;20048;-66
2021/06/20 02:22:38;;;;;;;22.95;14.20;;;23.50;99.90;;;;;;5099480;27;20511;-66
2021/06/20 02:25:06;;;;;;;22.48;15.77;;;23.40;99.90;;;;;;5099337;28;20055;-66
2021/06/20 02:27:33;;;;;;;20.70;14.82;;;23.40;99.90;;;;;;5099288;28;20071;-66
2021/06/20 02:30:00;;;;;;;24.10;15.82;;;23.30;99.90;;;;;;5098776;28;20044;-66
2021/06/20 02:32:28;;;;;;;22.60;16.17;;;23.30;99.90;;;;;;5099043;28;20105;-66
2021/06/20 02:34:56;;;;;;;22.58;14.95;;;23.30;99.90;;;;;;5100360;27;20143;-66
2021/06/20 02:37:23;;;;;;;19.42;14.25;;;23.30;99.90;;;;;;5099341;28;20075;-66
2021/06/20 02:39:51;;;;;;;22.10;14.73;;;23.20;99.90;;;;;;5098778;28;20500;-66
2021/06/20 02:42:18;;;;;;;23.23;15.13;;;23.30;99.90;;;;;;5098859;28;20432;-66
2021/06/20 02:44:46;;;;;;;25.08;15.98;;;23.20;99.90;;;;;;5098641;28;20131;-66
2021/06/20 02:47:13;;;;;;;23.35;15.05;;;23.30;99.90;;;;;;5099361;27;20509;-66
2021/06/20 02:49:42;;;;;;;17.98;13.38;;;23.20;99.90;;;;;;5098210;28;20416;-66
2021/06/20 02:52:11;;;;;;;19.13;12.80;;;23.40;99.90;;;;;;5098914;27;20048;-66
2021/06/20 02:54:49;;;;;;;17.33;12.98;;;23.30;99.90;;;;;;5098901;27;20039;-66
2021/06/20 02:57:16;;;;;;;24.67;14.27;;;23.10;99.90;;;;;;5099484;27;20039;-66
2021/06/20 02:59:43;;;;;;;18.00;12.75;;;23.30;99.90;;;;;;5098633;28;20051;-66
2021/06/20 03:02:10;;;;;;;19.08;12.48;;;23.30;99.90;;;;;;5098564;28;20104;-66
2021/06/20 03:04:37;;;;;;;20.25;13.02;;;23.20;99.90;;;;;;5098190;28;20086;-66
2021/06/20 03:07:06;;;;;;;20.80;13.40;;;23.20;99.90;;;;;;5099093;28;20107;-66
2021/06/20 03:09:34;;;;;;;21.10;13.35;;;23.40;99.90;;;;;;5098634;28;20100;-66
2021/06/20 03:12:02;;;;;;;20.20;14.07;;;23.30;99.90;;;;;;5098433;28;20059;-66
2021/06/20 03:14:29;;;;;;;19.63;13.07;;;23.10;99.90;;;;;;5098680;28;20047;-66
2021/06/20 03:16:57;;;;;;;24.98;15.93;;;23.00;99.90;;;;;;5098420;28;20059;-66
2021/06/20 03:19:24;;;;;;;20.10;14.35;;;23.10;99.90;;;;;;5098084;28;20102;-66
2021/06/20 03:21:55;;;;;;;21.50;15.10;;;23.10;99.90;;;;;;5097752;28;20139;-66
2021/06/20 03:24:23;;;;;;;23.67;14.15;;;23.10;99.90;;;;;;5098401;27;20062;-66
2021/06/20 03:26:50;;;;;;;22.50;14.80;;;23.00;99.90;;;;;;5098213;28;20077;-66
2021/06/20 03:29:17;;;;;;;21.50;14.38;;;23.00;99.90;;;;;;5097858;28;20183;-66
2021/06/20 03:31:44;;;;;;;24.17;13.50;;;23.10;99.90;;;;;;5097903;28;20059;-66
2021/06/20 03:34:11;;;;;;;17.65;12.50;;;23.10;99.90;;;;;;5098950;27;20142;-66
2021/06/20 03:36:38;;;;;;;17.52;12.80;;;23.20;99.90;;;;;;5098601;27;20040;-66
2021/06/20 03:39:06;;;;;;;16.33;11.38;;;23.30;99.90;;;;;;5097610;28;20511;-66
2021/06/20 03:41:39;;;;;;;14.52;11.60;;;23.50;99.90;;;;;;5097667;28;20100;-66
2021/06/20 03:44:06;;;;;;;19.70;11.45;;;23.60;99.90;;;;;;5097782;28;20446;-66
2021/06/20 03:46:33;;;;;;;19.05;12.73;;;23.70;99.90;;;;;;5097809;27;20183;-66
2021/06/20 03:49:00;;;;;;;18.38;13.90;;;23.70;99.90;;;;;;5097832;28;20036;-66
2021/06/20 03:51:27;;;;;;;23.75;14.02;;;23.60;99.90;;;;;;5097953;28;20090;-66
2021/06/20 03:53:54;;;;;;;21.35;13.57;;;23.60;99.90;;;;;;5097624;28;20055;-66
2021/06/20 03:56:21;;;;;;;18.90;13.60;;;23.70;99.90;;;;;;5097812;28;20132;-66
2021/06/20 03:58:50;;;;;;;21.42;14.18;;;23.70;99.90;;;;;;5098257;27;20171;-66
2021/06/20 04:01:17;;;;;;;18.65;11.88;;;23.70;99.90;;;;;;5097525;28;20097;-66
2021/06/20 04:03:45;;;;;;;17.63;11.15;;;23.80;99.90;;;;;;5098021;27;20568;-67
2021/06/20 04:06:12;;;;;;;19.40;11.90;;;24.10;99.90;;;;;;5097356;28;20083;-67
2021/06/20 04:08:38;;;;;;;20.10;11.80;;;24.10;99.90;;;;;;5097560;28;20044;-68
2021/06/20 04:11:06;;;;;;;16.88;12.90;;;24.20;99.90;;;;;;5097897;27;20411;-69
2021/06/20 04:13:32;;;;;;;18.27;12.27;;;24.20;99.90;;;;;;5097556;28;20052;-68
2021/06/20 04:16:01;;;;;;;16.65;12.27;;;24.20;99.90;;;;;;5097470;28;20087;-67
2021/06/20 04:18:28;;;;;;;16.65;12.75;;;24.30;99.90;;;;;;5097617;28;20096;-68
2021/06/20 04:20:55;;;;;;;19.55;12.40;;;24.30;99.90;;;;;;5097100;28;20087;-67
2021/06/20 04:23:23;;;;;;;16.23;12.65;;;24.30;99.90;;;;;;5097880;28;20044;-67
2021/06/20 04:25:50;;;;;;;17.73;13.45;;;24.30;99.90;;;;;;5096881;28;20101;-68
2021/06/20 04:28:19;;;;;;;17.02;12.50;;;24.30;99.90;;;;;;5097351;28;20044;-67
2021/06/20 04:30:47;;;;;;;16.10;12.43;;;24.30;99.90;;;;;;5096983;28;20531;-65
2021/06/20 04:33:16;;;;;;;15.50;12.40;;;24.40;99.90;;;;;;5097365;28;20055;-65
2021/06/20 04:35:42;;;;;;;18.70;12.48;;;24.40;99.90;;;;;;5097638;28;20104;-65
2021/06/20 04:38:09;;;;;;;19.85;12.70;;;24.40;99.90;;;;;;5097792;28;20060;-66
2021/06/20 04:40:38;;;;;;;16.95;12.65;;;24.50;99.90;;;;;;5096860;28;20492;-65
2021/06/20 04:43:08;;;;;;;18.05;12.57;;;24.50;99.90;;;;;;5097722;28;20087;-65
2021/06/20 04:45:35;;;;;;;16.98;12.50;;;24.60;99.90;;;;;;5097248;28;20050;-65
2021/06/20 04:48:02;;;;;;;19.08;12.40;;;24.70;99.90;;;;;;5097430;28;20077;-65
2021/06/20 04:50:31;;;;;;;19.17;13.07;;;24.80;99.90;;;;;;5096526;28;20043;-65
2021/06/20 04:52:58;;;;;;;20.85;12.70;;;24.80;99.90;;;;;;5097011;28;20128;-65
2021/06/20 04:55:25;;;;;;;18.08;13.50;;;24.70;99.90;;;;;;5097564;28;20116;-65
2021/06/20 04:57:52;;;;;;;19.33;13.52;;;24.80;99.90;;;;;;5097325;28;20052;-65
2021/06/20 05:00:19;;;;;;;20.20;13.82;;;24.70;99.90;;;;;;5096468;28;20101;-65
2021/06/20 05:02:47;;;;;;;16.80;12.80;;;24.90;99.90;;;;;;5097018;28;20457;-65
2021/06/20 05:05:14;;;;;;;17.35;13.55;;;24.90;99.90;;;;;;5098839;27;20515;-65
2021/06/20 05:07:43;;;;;;;16.83;12.98;;;25.00;99.90;;;;;;5101159;27;20048;-65
2021/06/20 05:10:10;;;;;;;16.35;13.07;;;25.10;99.90;;;;;;5101612;27;20047;-65
2021/06/20 05:12:38;;;;;;;18.83;13.07;;;25.00;99.90;;;;;;5100988;28;20109;-65
2021/06/20 05:15:07;;;;;;;20.38;14.02;;;24.90;99.90;;;;;;5101703;27;20598;-65
2021/06/20 05:17:34;;;;;;;18.63;13.77;;;24.90;99.90;;;;;;5101859;28;20053;-65
2021/06/20 05:20:01;;;;;;;21.95;14.13;;;24.90;99.90;;;;;;5100132;28;20043;-65
2021/06/20 05:22:28;;;;;;;18.52;13.93;;;25.00;99.90;;;;;;5101314;27;20100;-65
2021/06/20 05:24:57;;;;;;;23.02;14.77;;;25.00;99.90;;;;;;5100588;28;20407;-65
2021/06/20 05:27:24;;;;;;;18.48;14.18;;;25.10;99.90;;;;;;5101341;27;20047;-65
2021/06/20 05:29:51;;;;;;;20.38;14.23;;;25.10;99.90;;;;;;5100404;28;20104;-65
2021/06/20 05:32:18;;;;;;;20.52;12.50;;;25.20;99.90;;;;;;5100456;27;20097;-65
2021/06/20 05:34:44;;;;;;;20.48;12.80;;;25.30;99.90;;;;;;5100555;27;20515;-65
2021/06/20 05:37:11;;;;;;;17.50;12.45;;;25.50;99.90;;;;;;5100334;28;20071;-65
2021/06/20 05:39:38;;;;;;;20.70;12.77;;;25.60;99.90;;;;;;5100715;28;20131;-64
2021/06/20 05:42:08;;;;;;;24.85;13.32;;;25.60;99.90;;;;;;5100507;28;20103;-65
2021/06/20 05:44:35;;;;;;;16.52;11.77;;;25.60;99.90;;;;;;5100599;28;20085;-65
2021/06/20 05:47:02;;;;;;;19.27;13.20;;;25.80;99.90;;;;;;5100496;27;20101;-65
2021/06/20 05:49:29;;;;;;;20.67;11.88;;;25.80;99.90;;;;;;5100223;27;20079;-65
2021/06/20 05:51:56;;;;;;;22.30;14.05;;;26.00;99.90;;;;;;5099619;27;20055;-65
2021/06/20 05:54:23;;;;;;;21.35;12.93;;;26.00;99.90;;;;;;5100765;28;20316;-65
2021/06/20 05:56:50;;;;;;;18.58;13.05;;;26.10;99.90;;;;;;5100685;27;20051;-65
2021/06/20 05:59:19;;;;;;;18.13;12.18;;;26.00;99.90;;;;;;5100388;28;20556;-64
2021/06/20 06:01:45;;;;;;;20.40;11.98;;;26.10;99.90;;;;;;5099324;27;20044;-65
2021/06/20 06:04:12;;;;;;;23.23;13.20;;;26.10;99.90;;;;;;5101781;27;20079;-64
2021/06/20 06:06:39;;;;;;;20.92;12.32;;;26.10;99.90;;;;;;5100078;28;20056;-64
2021/06/20 06:09:06;;;;;;;24.77;12.75;;;26.30;99.90;;;;;;5100766;27;20078;-64
2021/06/20 06:11:33;;;;;;;19.55;12.63;;;26.30;99.90;;;;;;5100802;27;20047;-65
2021/06/20 06:14:00;;;;;;;18.83;11.52;;;26.30;99.90;;;;;;5100016;28;20043;-64
2021/06/20 06:16:29;;;;;;;20.63;10.32;;;26.30;99.90;;;;;;5100601;27;20104;-65
2021/06/20 06:18:56;;;;;;;21.05;10.55;;;26.30;99.90;;;;;;5099853;28;20071;-65
2021/06/20 06:21:23;;;;;;;21.83;11.20;;;26.40;99.90;;;;;;5100062;28;20043;-66
2021/06/20 06:23:50;;;;;;;23.92;11.02;;;26.30;99.90;;;;;;5100776;28;20083;-64
2021/06/20 06:26:17;;;;;;;19.98;9.77;;;26.30;99.90;;;;;;5101060;28;20047;-64
2021/06/20 06:28:43;;;;;;;23.40;10.20;;;26.30;99.90;;;;;;5100830;28;20104;-66
2021/06/20 06:31:10;;;;;;;20.30;9.68;;;26.20;99.90;;;;;;5099715;27;20092;-66
2021/06/20 06:33:39;;;;;;;22.85;9.75;;;26.10;99.90;;;;;;5101252;27;20676;-64
2021/06/20 06:36:06;;;;;;;22.30;9.13;;;25.90;99.90;;;;;;5103039;28;20096;-64
2021/06/20 06:38:34;;;;;;;14.35;7.57;;;26.10;99.90;;;;;;5101205;28;20465;-66
2021/06/20 06:41:01;;;;;;;21.27;8.70;;;26.00;99.90;;;;;;5100532;28;20044;-66
2021/06/20 06:43:28;;;;;;;17.05;7.50;;;25.90;99.90;;;;;;5100871;27;20136;-64
2021/06/20 06:45:54;;;;;;;17.65;8.13;;;25.90;99.90;;;;;;5101137;27;20105;-64
2021/06/20 06:48:21;;;;;;;17.67;7.70;;;25.90;99.90;;;;;;5100158;28;20488;-64
2021/06/20 06:50:50;;;;;;;23.02;7.85;;;25.90;99.90;;;;;;5100766;27;20449;-64
2021/06/20 06:53:17;;;;;;;22.25;8.18;;;26.00;99.90;;;;;;5101079;28;20393;-64
2021/06/20 06:55:44;;;;;;;20.08;6.97;;;26.10;99.90;;;;;;5100270;28;20083;-64
2021/06/20 06:58:12;;;;;;;19.58;7.35;;;26.20;99.90;;;;;;5100881;28;20059;-64
2021/06/20 07:00:39;;;;;;;15.02;6.25;;;26.20;99.90;;;;;;5100244;28;20043;-66
2021/06/20 07:03:06;;;;;;;21.50;7.63;;;26.20;99.90;;;;;;5100043;27;20443;-66
2021/06/20 07:05:33;;;;;;;22.45;7.72;;;26.20;99.90;;;;;;5101271;27;20108;-64
2021/06/20 07:08:02;;;;;;;20.52;7.13;;;26.40;99.90;;;;;;5100090;28;20074;-64
2021/06/20 07:10:29;;;;;;;19.38;6.55;;;26.40;99.90;;;;;;5098159;27;20135;-64
2021/06/20 07:12:56;;;;;;;21.50;6.90;;;26.50;99.90;;;;;;5101117;27;20128;-64
2021/06/20 07:15:24;;;;;;;20.15;7.65;;;26.50;99.90;;;;;;5101815;27;20108;-64
2021/06/20 07:17:51;;;;;;;21.15;6.97;;;26.50;99.90;;;;;;5100787;28;20040;-66
2021/06/20 07:20:18;;;;;;;20.65;7.63;;;26.40;99.90;;;;;;5100513;28;20059;-67
2021/06/20 07:22:48;;;;;;;15.90;6.10;;;26.40;99.90;;;;;;5099214;28;20151;-64
2021/06/20 07:25:18;;;;;;;20.60;6.90;;;26.50;99.90;;;;;;5100072;28;20044;-64
2021/06/20 07:27:45;;;;;;;16.00;6.22;;;26.60;99.90;;;;;;5099555;27;20075;-64
2021/06/20 07:30:15;;;;;;;21.83;6.35;;;26.60;99.90;;;;;;5098806;28;20461;-67
2021/06/20 07:32:42;;;;;;;18.98;7.28;;;26.80;99.90;;;;;;5099168;27;20048;-67
2021/06/20 07:35:10;;;;;;;19.17;7.95;;;26.80;99.90;;;;;;5099331;28;20157;-67
2021/06/20 07:37:38;;;;;;;20.60;6.65;;;26.80;99.90;;;;;;5099482;27;20140;-66
2021/06/20 07:40:07;;;;;;;19.85;7.00;;;26.70;99.90;;;;;;5098722;27;20102;-67
2021/06/20 07:42:35;;;;;;;17.77;6.72;;;26.80;99.90;;;;;;5099425;28;20121;-67
2021/06/20 07:45:03;;;;;;;18.80;5.90;;;26.70;99.90;;;;;;5098862;27;20085;-66
2021/06/20 07:47:30;;;;;;;17.58;6.88;;;26.70;99.90;;;;;;5097518;28;20453;-67
2021/06/20 07:49:57;;;;;;;19.52;6.47;;;26.80;99.90;;;;;;5097858;28;20048;-64
2021/06/20 07:52:24;;;;;;;17.17;6.13;;;27.00;99.90;;;;;;5100979;28;20083;-64
2021/06/20 07:54:51;;;;;;;17.58;5.53;;;27.20;99.90;;;;;;5100279;28;20447;-65
2021/06/20 07:57:18;;;;;;;16.58;5.65;;;27.00;99.90;;;;;;5100512;28;20035;-66
2021/06/20 07:59:48;;;;;;;16.40;6.20;;;27.10;99.90;;;;;;5099745;27;20051;-66
2021/06/20 08:02:16;;;;;;;15.32;5.90;;;27.00;99.90;;;;;;5099203;28;20126;-64
2021/06/20 08:04:43;;;;;;;15.35;5.40;;;27.30;99.90;;;;;;5098818;27;20052;-64
2021/06/20 08:07:11;;;;;;;25.45;5.90;;;27.10;99.90;;;;;;5099341;28;20499;-64
2021/06/20 08:09:38;;;;;;;23.20;6.47;;;27.30;99.90;;;;;;5098009;27;20499;-64
2021/06/20 08:12:06;;;;;;;17.73;6.10;;;27.50;99.90;;;;;;5100497;27;20051;-64
2021/06/20 08:14:33;;;;;;;21.65;6.45;;;27.60;99.90;;;;;;5099671;28;20052;-64
2021/06/20 08:17:02;;;;;;;16.45;5.82;;;27.50;99.90;;;;;;5099456;27;20075;-64
2021/06/20 08:19:29;;;;;;;22.00;6.45;;;27.30;99.90;;;;;;5099527;28;20043;-66
2021/06/20 08:21:56;;;;;;;20.65;6.00;;;27.30;99.90;;;;;;5100221;28;20063;-66
2021/06/20 08:24:23;;;;;;;14.98;5.93;;;27.30;99.90;;;;;;5100538;28;20051;-66
2021/06/20 08:26:50;;;;;;;14.20;4.78;;;27.30;99.90;;;;;;5100964;28;20047;-64
2021/06/20 08:29:17;;;;;;;18.55;5.40;;;27.40;99.90;;;;;;5101205;28;20083;-64
2021/06/20 08:31:44;;;;;;;15.93;5.95;;;27.60;99.90;;;;;;5100614;28;20486;-64
2021/06/20 08:34:13;;;;;;;13.25;5.00;;;27.70;99.90;;;;;;5100566;28;20089;-66
2021/06/20 08:36:40;;;;;;;15.80;5.80;;;27.70;99.90;;;;;;5101056;28;20070;-66
2021/06/20 08:39:07;;;;;;;16.50;4.88;;;28.00;99.90;;;;;;5101183;28;20052;-64
2021/06/20 08:41:39;;;;;;;11.30;4.00;;;28.00;99.90;;;;;;5103879;27;20109;-66
2021/06/20 08:44:15;;;;;;;12.85;4.22;;;28.00;99.90;;;;;;5104768;28;20092;-64
2021/06/20 08:46:42;;;;;;;13.70;4.53;;;28.10;99.90;;;;;;5104489;28;20108;-65
2021/06/20 08:49:11;;;;;;;13.20;4.43;;;28.10;99.90;;;;;;5103488;28;20183;-63
2021/06/20 08:51:40;;;;;;;15.52;4.30;;;28.00;99.90;;;;;;5103630;28;20051;-64
2021/06/20 08:54:07;;;;;;;12.95;4.45;;;28.10;99.90;;;;;;5104793;28;20045;-64
2021/06/20 08:56:34;;;;;;;9.82;3.60;;;27.90;99.90;;;;;;5103824;28;20081;-64
2021/06/20 08:59:04;;;;;;;8.60;3.25;;;27.70;99.90;;;;;;5105258;27;20404;-66
2021/06/20 09:01:32;;;;;;;9.85;2.92;;;27.20;99.90;;;;;;5104649;28;20055;-66
2021/06/20 09:03:59;;;;;;;8.45;2.28;;;27.10;99.90;;;;;;5104799;28;20051;-66
2021/06/20 09:06:27;;;;;;;7.25;2.88;;;27.00;99.90;;;;;;5101612;28;20051;-66
2021/06/20 09:08:56;;;;;;;10.00;3.22;;;27.00;99.90;;;;;;5101771;28;20051;-66
2021/06/20 09:11:28;;;;;;;11.48;2.65;;;27.00;99.90;;;;;;5101486;28;20345;-66
2021/06/20 09:14:04;;;;;;;6.45;1.90;;;27.00;99.90;;;;;;5101560;28;20448;-66
2021/06/20 09:16:31;;;;;;;8.20;1.98;;;26.90;99.90;;;;;;5103390;28;20445;-66
2021/06/20 09:18:59;;;;;;;7.07;2.20;;;27.10;99.90;;;;;;5101837;28;21380;-66
2021/06/20 09:21:26;;;;;;;9.20;2.65;;;27.10;99.90;;;;;;5102446;28;20048;-64
2021/06/20 09:23:56;;;;;;;9.23;3.38;;;27.20;99.90;;;;;;5101694;27;20047;-64
2021/06/20 09:26:36;;;;;;;7.45;2.50;;;27.30;99.90;;;;;;5100341;28;20488;-65
2021/06/20 09:29:05;;;;;;;11.70;2.95;;;27.50;99.90;;;;;;5101251;27;20043;-65
2021/06/20 09:31:49;;;;;;;11.60;2.65;;;27.40;99.90;;;;;;5101132;28;20100;-64
2021/06/20 09:34:16;;;;;;;8.18;2.72;;;27.30;99.90;;;;;;5101883;28;20043;-64
2021/06/20 09:36:45;;;;;;;8.32;2.67;;;27.20;99.90;;;;;;5099984;28;20075;-64
2021/06/20 09:39:21;;;;;;;7.90;2.22;;;27.30;99.90;;;;;;5098682;28;20164;-64
2021/06/20 09:42:02;;;;;;;11.60;3.03;;;27.30;99.90;;;;;;5098748;27;20074;-64
2021/06/20 09:44:42;;;;;;;10.70;2.55;;;27.30;99.90;;;;;;5098201;27;20111;-64
2021/06/20 09:47:11;;;;;;;8.95;2.72;;;27.40;99.90;;;;;;5098110;28;20058;-64
2021/06/20 09:49:39;;;;;;;7.50;2.42;;;27.10;99.90;;;;;;5098338;28;20160;-64
2021/06/20 09:52:07;;;;;;;10.25;2.55;;;27.00;99.90;;;;;;5098046;27;20051;-65
2021/06/20 09:54:37;;;;;;;9.13;3.13;;;27.20;99.90;;;;;;5098165;28;20063;-64
2021/06/20 09:57:05;;;;;;;12.13;3.00;;;27.20;99.90;;;;;;5097978;27;20495;-64
2021/06/20 09:59:41;;;;;;;15.10;4.00;;;27.10;99.90;;;;;;5097945;27;20047;-64
2021/06/20 10:02:10;;;;;;;6.22;2.30;;;27.10;99.90;;;;;;5098001;28;20051;-65
2021/06/20 10:04:39;;;;;;;10.35;2.72;;;27.10;99.90;;;;;;5099170;28;20043;-65
2021/06/20 10:07:07;;;;;;;9.85;3.45;;;26.70;99.90;;;;;;5098308;28;20043;-66
2021/06/20 10:09:37;;;;;;;10.02;2.97;;;26.80;99.90;;;;;;5097973;27;20052;-65
2021/06/20 10:12:06;;;;;;;11.43;3.00;;;26.90;99.90;;;;;;5098088;27;20140;-64
2021/06/20 10:14:34;;;;;;;7.55;2.60;;;26.90;99.90;;;;;;5097385;28;20051;-64
2021/06/20 10:17:08;;;;;;;10.60;3.15;;;26.90;99.90;;;;;;5096357;27;20097;-64
2021/06/20 10:19:40;;;;;;;21.48;4.90;;;26.90;99.90;;;;;;5097822;27;20040;-66
2021/06/20 10:22:10;;;;;;;8.25;3.05;;;26.90;99.90;;;;;;5095155;28;20144;-64
2021/06/20 10:24:46;;;;;;;7.10;2.83;;;26.70;99.90;;;;;;5097384;28;20083;-64
2021/06/20 10:27:28;;;;;;;6.35;2.22;;;26.60;99.90;;;;;;5097828;27;20561;-64
2021/06/20 10:29:56;;;;;;;7.60;2.47;;;26.60;99.90;;;;;;5096770;27;20063;-65
2021/06/20 10:32:24;;;;;;;6.97;2.22;;;26.50;99.90;;;;;;5097424;28;20086;-64
2021/06/20 10:34:53;;;;;;;6.32;2.60;;;26.40;99.90;;;;;;5098005;27;20055;-63
2021/06/20 10:37:22;;;;;;;8.88;3.47;;;26.30;99.90;;;;;;5097186;28;20090;-64
2021/06/20 10:39:53;;;;;;;6.50;2.40;;;26.40;99.90;;;;;;5096998;27;20132;-65
2021/06/20 10:42:20;;;;;;;6.72;2.63;;;26.40;99.90;;;;;;5096999;28;20418;-65
2021/06/20 10:44:49;;;;;;;10.65;3.08;;;26.40;99.90;;;;;;5097173;28;20112;-65
2021/06/20 10:47:30;;;;;;;11.77;2.85;;;26.60;99.90;;;;;;5096737;28;20146;-64
2021/06/20 10:49:58;;;;;;;7.50;2.30;;;26.50;99.90;;;;;;5096395;28;20492;-66
2021/06/20 10:52:25;;;;;;;8.85;2.83;;;26.60;99.90;;;;;;5096609;28;20047;-64
2021/06/20 10:55:09;;;;;;;6.85;2.70;;;26.70;99.90;;;;;;5096661;27;20524;-64
2021/06/20 10:57:48;;;;;;;9.38;2.67;;;26.80;99.90;;;;;;5096073;27;20047;-65
2021/06/20 11:00:31;;;;;;;9.20;2.97;;;27.10;99.90;;;;;;5096846;27;20075;-64
2021/06/20 11:03:08;;;;;;;7.85;3.45;;;27.30;99.90;;;;;;5093257;28;20422;-64
2021/06/20 11:05:47;;;;;;;10.85;3.00;;;27.50;99.90;;;;;;5096714;28;20595;-64
2021/06/20 11:08:29;;;;;;;7.45;2.60;;;27.60;99.90;;;;;;5096182;28;20140;-65
2021/06/20 11:11:15;;;;;;;7.40;2.70;;;27.60;99.90;;;;;;5096741;27;20047;-64
2021/06/20 11:13:44;;;;;;;7.70;2.80;;;27.50;99.90;;;;;;5096221;28;20058;-64
2021/06/20 11:16:13;;;;;;;8.05;3.35;;;27.30;99.90;;;;;;5095283;28;20769;-64
2021/06/20 11:18:41;;;;;;;7.30;2.65;;;27.40;99.90;;;;;;5095413;28;20051;-64
2021/06/20 11:21:08;;;;;;;9.38;2.40;;;27.30;99.90;;;;;;5095629;28;20043;-64
2021/06/20 11:23:37;;;;;;;5.30;2.28;;;27.10;99.90;;;;;;5095758;28;20075;-64
2021/06/20 11:26:04;;;;;;;7.45;2.35;;;27.10;99.90;;;;;;5096111;28;20055;-64
2021/06/20 11:28:33;;;;;;;11.15;3.08;;;26.90;99.90;;;;;;5096321;27;20105;-64
2021/06/20 11:31:08;;;;;;;14.38;2.60;;;27.10;99.90;;;;;;5096208;28;20130;-64
2021/06/20 11:33:35;;;;;;;9.25;2.63;;;27.10;99.90;;;;;;5095764;28;20100;-66
2021/06/20 11:36:02;;;;;;;11.63;2.85;;;26.90;99.90;;;;;;5097033;27;20456;-64
2021/06/20 11:38:35;;;;;;;9.15;2.58;;;27.20;99.90;;;;;;5095851;28;20052;-64
2021/06/20 11:41:14;;;;;;;8.20;2.75;;;27.30;99.90;;;;;;5101548;28;20054;-65
2021/06/20 11:43:53;;;;;;;7.93;2.92;;;27.60;99.90;;;;;;5096222;28;20170;-65
2021/06/20 11:46:21;;;;;;;8.50;2.33;;;27.70;99.90;;;;;;5096858;27;20086;-64
2021/06/20 11:49:00;;;;;;;7.80;2.70;;;27.90;99.90;;;;;;5095668;28;20050;-64
2021/06/20 11:51:38;;;;;;;8.25;2.50;;;28.10;99.90;;;;;;5095519;28;20047;-64
2021/06/20 11:54:21;;;;;;;8.15;2.45;;;28.10;99.90;;;;;;5095979;28;20091;-64
2021/06/20 11:56:50;;;;;;;9.05;3.42;;;28.10;99.90;;;;;;5092891;28;20075;-64
2021/06/20 11:59:34;;;;;;;9.38;2.90;;;27.90;99.90;;;;;;5095256;28;20341;-64
2021/06/20 12:02:01;;;;;;;7.95;2.75;;;28.00;99.90;;;;;;5094498;28;20055;-65
2021/06/20 12:04:30;;;;;;;7.88;2.72;;;27.80;99.90;;;;;;5096719;27;20044;-65
2021/06/20 12:06:58;;;;;;;6.95;2.85;;;27.80;99.90;;;;;;5095475;28;20047;-64
2021/06/20 12:09:25;;;;;;;6.35;2.40;;;27.80;99.90;;;;;;5097676;27;20508;-64
2021/06/20 12:11:59;;;;;;;12.30;3.53;;;27.80;99.90;;;;;;5097933;28;20385;-65
2021/06/20 12:14:29;;;;;;;7.35;2.60;;;27.60;99.90;;;;;;5097972;28;20044;-64
2021/06/20 12:16:57;;;;;;;7.35;2.97;;;27.50;99.90;;;;;;5098192;28;20047;-65
2021/06/20 12:19:27;;;;;;;14.30;3.63;;;27.20;99.90;;;;;;5098171;28;20082;-64
2021/06/20 12:22:15;;;;;;;9.52;3.08;;;27.40;99.90;;;;;;5097759;28;20108;-64
2021/06/20 12:24:43;;;;;;;9.13;2.78;;;27.50;99.90;;;;;;5098255;28;20408;-64
2021/06/20 12:27:12;;;;;;;16.15;4.88;;;27.20;99.90;;;;;;5097310;28;20105;-64
2021/06/20 12:29:41;;;;;;;8.63;3.35;;;27.20;99.90;;;;;;5097864;28;20508;-64
2021/06/20 12:32:15;;;;;;;10.18;3.67;;;27.10;99.90;;;;;;5098294;28;20048;-65
2021/06/20 12:34:48;;;;;;;9.52;3.70;;;27.00;99.90;;;;;;5098241;28;20100;-64
2021/06/20 12:37:18;;;;;;;9.75;3.05;;;26.90;99.90;;;;;;5097529;28;20062;-64
2021/06/20 12:39:49;;;;;;;12.43;4.28;;;26.80;99.90;;;;;;5096998;28;20043;-63
2021/06/20 12:42:16;;;;;;;14.50;4.10;;;27.10;99.90;;;;;;5097930;28;20072;-63